Time;durP1;ratioP1;P1;durP2;ratioP2;P2;SDS_P1;SDS_P2;PMS_P1;PMS_P2;Temp;Humidity;BMP_temperature;BMP_pressure;BME280_temperature;BME280_humidity;BME280_pressure;Samples;Min_cycle;Max_cycle;Signal;HPM_P1;HPM_P2
2022/07/19 00:04:11;;;;;;;4.20;2.03;;;29.90;53.90;;;;;;10785237;33;20043;-71
2022/07/19 00:10:16;;;;;;;5.60;2.72;;;29.90;54.20;;;;;;10787205;33;20029;-72
2022/07/19 00:16:18;;;;;;;2.00;1.62;;;29.90;54.40;;;;;;10786737;33;20415;-71
2022/07/19 00:22:20;;;;;;;2.90;2.05;;;29.70;54.60;;;;;;10788907;33;20008;-71
2022/07/19 00:28:23;;;;;;;3.05;2.15;;;29.50;55.20;;;;;;10788562;33;20043;-71
2022/07/19 00:34:25;;;;;;;1.98;1.42;;;29.40;55.40;;;;;;10788506;33;20358;-71
2022/07/19 00:40:27;;;;;;;2.90;1.95;;;29.30;55.60;;;;;;10788360;33;20032;-71
2022/07/19 00:46:29;;;;;;;3.80;1.87;;;29.30;55.60;;;;;;10788169;33;20348;-71
2022/07/19 00:52:33;;;;;;;3.47;1.95;;;29.30;55.90;;;;;;10787556;33;20047;-71
2022/07/19 00:58:36;;;;;;;3.03;2.22;;;29.20;56.30;;;;;;10787877;33;20051;-71
2022/07/19 01:04:38;;;;;;;2.72;2.22;;;29.20;56.50;;;;;;10787902;33;20404;-71
2022/07/19 01:10:41;;;;;;;5.68;2.08;;;29.30;56.30;;;;;;10787775;33;20059;-71
2022/07/19 01:16:45;;;;;;;3.70;2.20;;;29.30;56.20;;;;;;10787563;33;20028;-71
2022/07/19 01:22:47;;;;;;;4.47;2.08;;;29.20;56.50;;;;;;10787412;33;20028;-71
2022/07/19 01:28:50;;;;;;;3.53;2.12;;;29.10;56.80;;;;;;10774207;33;20432;-71
2022/07/19 01:34:52;;;;;;;5.28;2.78;;;29.20;56.70;;;;;;10787177;33;20058;-71
2022/07/19 01:40:57;;;;;;;4.30;2.17;;;29.10;56.80;;;;;;10786970;33;20024;-71
2022/07/19 01:46:59;;;;;;;2.75;2.08;;;29.00;56.90;;;;;;10786914;33;20397;-71
2022/07/19 01:53:01;;;;;;;6.62;2.42;;;29.10;57.00;;;;;;10786844;33;20020;-71
2022/07/19 01:59:03;;;;;;;2.80;2.15;;;29.10;57.10;;;;;;10785861;33;20392;-71
2022/07/19 02:05:06;;;;;;;4.30;2.40;;;29.10;57.00;;;;;;10792949;33;20013;-71
2022/07/19 02:17:29;;;;;;;3.50;1.92;;;28.90;57.40;;;;;;10792500;33;20396;-71
2022/07/19 02:23:31;;;;;;;4.10;1.90;;;29.00;57.60;;;;;;10792414;33;20438;-71
2022/07/19 02:29:33;;;;;;;2.47;2.03;;;28.90;57.50;;;;;;10791683;33;20043;-71
2022/07/19 02:35:35;;;;;;;4.35;2.70;;;28.90;57.50;;;;;;10792013;33;20047;-71
2022/07/19 02:41:38;;;;;;;3.50;1.98;;;28.90;57.60;;;;;;10791967;33;20385;-71
2022/07/19 02:47:40;;;;;;;2.22;1.83;;;28.80;57.60;;;;;;10791487;33;20090;-71
2022/07/19 02:53:42;;;;;;;3.92;2.28;;;28.80;57.70;;;;;;10791411;33;20012;-71
2022/07/19 02:59:44;;;;;;;3.40;2.03;;;28.70;58.00;;;;;;10791200;33;20055;-71
2022/07/19 03:05:47;;;;;;;3.05;1.92;;;28.60;58.40;;;;;;10790959;33;20039;-71
2022/07/19 03:11:49;;;;;;;2.70;1.92;;;28.60;58.50;;;;;;10790402;33;20352;-71
2022/07/19 03:17:51;;;;;;;3.25;2.60;;;28.60;58.70;;;;;;10790767;33;20336;-71
2022/07/19 03:23:53;;;;;;;3.92;2.30;;;28.40;59.10;;;;;;10790566;33;20043;-70
2022/07/19 03:29:55;;;;;;;3.67;2.22;;;28.30;59.60;;;;;;10790383;33;20016;-70
2022/07/19 03:35:59;;;;;;;3.80;2.60;;;28.30;59.90;;;;;;10787720;33;20028;-70
2022/07/19 03:42:01;;;;;;;3.67;2.30;;;28.30;59.80;;;;;;10789950;33;20051;-71
2022/07/19 03:48:03;;;;;;;5.25;2.20;;;28.30;59.80;;;;;;10789976;33;20043;-70
2022/07/19 03:54:05;;;;;;;4.55;2.90;;;28.20;59.60;;;;;;10789713;33;20012;-70
2022/07/19 04:00:08;;;;;;;2.70;2.00;;;28.20;59.50;;;;;;10789544;33;20337;-70
2022/07/19 04:06:33;;;;;;;7.32;2.50;;;28.10;59.50;;;;;;10789943;33;20047;-70
2022/07/19 04:12:35;;;;;;;2.00;1.58;;;28.00;59.60;;;;;;10789082;33;20393;-70
2022/07/19 04:18:38;;;;;;;4.00;2.53;;;27.90;59.50;;;;;;10788798;33;20028;-69
2022/07/19 04:24:40;;;;;;;4.50;2.67;;;27.90;59.50;;;;;;10787822;33;20063;-70
2022/07/19 04:30:42;;;;;;;2.37;1.50;;;27.90;59.30;;;;;;10819145;27;20088;-70
2022/07/19 04:37:03;;;;;;;2.97;1.80;;;27.90;59.20;;;;;;10826471;33;20055;-71
2022/07/19 04:43:05;;;;;;;1.45;1.17;;;28.00;59.00;;;;;;10825029;33;20020;-70
2022/07/19 04:49:07;;;;;;;4.90;2.65;;;27.90;59.00;;;;;;10821392;33;20325;-70
2022/07/19 04:55:09;;;;;;;2.62;1.55;;;28.00;58.80;;;;;;10824662;33;20041;-70
2022/07/19 05:01:11;;;;;;;3.78;2.03;;;28.10;58.70;;;;;;10824772;33;20031;-70
2022/07/19 05:07:14;;;;;;;1.75;1.23;;;28.10;58.70;;;;;;10820487;33;20012;-70
2022/07/19 05:13:16;;;;;;;2.58;1.35;;;28.10;58.50;;;;;;10824389;33;20325;-70
2022/07/19 05:19:18;;;;;;;2.75;1.55;;;28.20;58.50;;;;;;10824163;33;20406;-70
2022/07/19 05:25:20;;;;;;;3.12;1.23;;;28.30;58.40;;;;;;10818816;33;20063;-70
2022/07/19 05:31:22;;;;;;;2.12;1.42;;;28.30;58.20;;;;;;10786941;33;20028;-70
2022/07/19 05:37:24;;;;;;;2.08;1.27;;;28.40;58.10;;;;;;10786867;33;20058;-70
2022/07/19 05:43:26;;;;;;;2.05;1.15;;;28.50;58.10;;;;;;10792831;33;20021;-70
2022/07/19 05:49:28;;;;;;;0.98;0.68;;;28.60;58.30;;;;;;10789245;33;20047;-70
2022/07/19 05:55:31;;;;;;;4.93;1.48;;;28.70;58.20;;;;;;10793141;33;20055;-70
2022/07/19 06:01:33;;;;;;;1.75;1.33;;;28.80;57.90;;;;;;10790467;32;20059;-70
2022/07/19 06:07:36;;;;;;;2.17;1.62;;;28.90;57.50;;;;;;10791511;33;20047;-70
2022/07/19 06:13:39;;;;;;;1.42;0.90;;;29.20;57.20;;;;;;10788272;33;20443;-70
2022/07/19 06:19:42;;;;;;;3.55;1.15;;;29.30;56.90;;;;;;10788392;32;20485;-69
2022/07/19 06:25:45;;;;;;;4.03;2.00;;;29.40;56.50;;;;;;10788678;32;20055;-70
2022/07/19 06:31:48;;;;;;;4.47;1.30;;;29.50;56.10;;;;;;10788002;32;20050;-70
2022/07/19 06:37:50;;;;;;;4.70;1.52;;;29.50;56.00;;;;;;10804697;33;20431;-70
2022/07/19 06:43:52;;;;;;;3.28;2.03;;;29.60;55.80;;;;;;10787445;33;20043;-69
2022/07/19 06:49:55;;;;;;;3.87;1.98;;;29.80;55.10;;;;;;10788430;33;20383;-70
2022/07/19 06:55:57;;;;;;;2.75;1.27;;;29.80;54.00;;;;;;10787462;33;20016;-70
2022/07/19 07:01:59;;;;;;;2.62;1.45;;;29.90;54.20;;;;;;10786038;33;20021;-69
2022/07/19 07:08:02;;;;;;;2.25;1.52;;;30.10;54.20;;;;;;10787453;33;20047;-69
2022/07/19 07:14:04;;;;;;;1.95;1.23;;;30.10;53.00;;;;;;10786497;33;20028;-71
2022/07/19 07:20:08;;;;;;;2.50;1.37;;;30.30;53.30;;;;;;10786554;33;20039;-70
2022/07/19 07:26:11;;;;;;;1.62;1.42;;;30.40;52.50;;;;;;10786358;33;20033;-69
2022/07/19 07:32:13;;;;;;;1.73;1.42;;;30.50;52.60;;;;;;10787364;33;20020;-70
2022/07/19 07:38:15;;;;;;;6.97;1.98;;;30.60;52.50;;;;;;10786852;33;20430;-70
2022/07/19 07:44:17;;;;;;;4.22;2.15;;;30.60;51.40;;;;;;10786815;33;20401;-70
2022/07/19 07:50:19;;;;;;;1.83;1.48;;;30.70;50.90;;;;;;10786301;33;20055;-70
2022/07/19 07:56:22;;;;;;;1.80;1.08;;;30.80;50.80;;;;;;10801834;33;20090;-69
2022/07/19 08:02:24;;;;;;;2.85;1.52;;;30.90;50.20;;;;;;10821835;32;20054;-71
2022/07/19 08:08:27;;;;;;;2.42;1.55;;;31.10;49.80;;;;;;10822167;33;20051;-70
2022/07/19 08:14:29;;;;;;;4.55;1.70;;;31.20;48.70;;;;;;10824440;33;20051;-70
2022/07/19 08:20:32;;;;;;;3.40;1.55;;;31.30;48.50;;;;;;10821888;33;20032;-70
2022/07/19 08:26:34;;;;;;;4.95;1.40;;;31.40;47.70;;;;;;10822097;32;20029;-70
2022/07/19 08:32:37;;;;;;;1.95;1.48;;;31.60;47.90;;;;;;10823692;33;20055;-70
2022/07/19 08:38:40;;;;;;;2.22;1.50;;;31.60;46.20;;;;;;10821245;33;20412;-69
2022/07/19 08:44:42;;;;;;;5.18;1.70;;;31.80;46.40;;;;;;10823909;33;20058;-70
2022/07/19 08:50:46;;;;;;;2.15;1.17;;;31.90;46.00;;;;;;10821970;33;20028;-70
2022/07/19 09:03:09;;;;;;;2.30;1.42;;;32.20;44.30;;;;;;10820855;33;20028;-71
2022/07/19 09:09:13;;;;;;;2.10;1.33;;;32.30;44.00;;;;;;10824806;32;20036;-72
2022/07/19 09:15:16;;;;;;;2.95;1.20;;;32.40;43.00;;;;;;10831167;33;20050;-71
2022/07/19 09:21:18;;;;;;;4.12;1.20;;;32.60;41.90;;;;;;10831138;33;20024;-70
2022/07/19 09:27:29;;;;;;;2.83;1.55;;;32.70;41.10;;;;;;10830276;33;20020;-71
2022/07/19 09:33:33;;;;;;;2.58;1.30;;;32.90;39.90;;;;;;10830717;33;20054;-71
2022/07/19 09:39:35;;;;;;;1.70;1.15;;;32.90;39.40;;;;;;10830043;33;20051;-71
2022/07/19 09:45:37;;;;;;;1.85;1.33;;;33.00;39.40;;;;;;10830305;33;20051;-71
2022/07/19 09:51:42;;;;;;;1.08;0.90;;;33.10;39.60;;;;;;10829985;33;20020;-72
2022/07/19 09:57:47;;;;;;;2.08;1.27;;;33.30;38.90;;;;;;10829913;33;20027;-71
2022/07/19 10:03:51;;;;;;;2.03;1.40;;;33.50;38.30;;;;;;10829607;33;20028;-71
2022/07/19 10:09:53;;;;;;;2.62;1.65;;;33.50;37.60;;;;;;10822970;32;20067;-72
2022/07/19 10:15:59;;;;;;;4.00;1.23;;;33.70;37.00;;;;;;10829301;33;20395;-71
2022/07/19 10:22:03;;;;;;;2.55;1.33;;;33.90;36.80;;;;;;10829066;32;20403;-71
2022/07/19 10:28:27;;;;;;;3.22;1.17;;;34.00;36.40;;;;;;10828983;33;20023;-70
2022/07/19 10:34:30;;;;;;;0.93;0.80;;;34.20;35.40;;;;;;10828655;33;20059;-71
2022/07/19 10:40:40;;;;;;;0.80;0.80;;;34.30;34.70;;;;;;10827235;33;20052;-70
2022/07/19 10:46:51;;;;;;;2.53;1.20;;;34.50;34.20;;;;;;10809260;33;20055;-70
2022/07/19 10:52:53;;;;;;;3.80;0.95;;;34.60;34.50;;;;;;10790909;33;20345;-70
2022/07/19 10:59:07;;;;;;;3.22;1.20;;;34.80;34.00;;;;;;10787662;33;20071;-71
2022/07/19 11:05:29;;;;;;;2.42;1.08;;;35.00;33.60;;;;;;10787911;33;20442;-70
2022/07/19 11:11:31;;;;;;;2.17;1.30;;;35.30;33.70;;;;;;10791275;33;20024;-70
2022/07/19 11:17:34;;;;;;;2.12;1.50;;;35.40;33.90;;;;;;10788513;33;20029;-70
2022/07/19 11:23:38;;;;;;;4.35;1.60;;;35.60;35.20;;;;;;10790139;33;20071;-71
2022/07/19 11:29:57;;;;;;;0.98;0.80;;;35.80;34.10;;;;;;10786704;33;20050;-70
2022/07/19 11:36:00;;;;;;;1.85;1.25;;;36.00;33.20;;;;;;10787457;33;20036;-71
2022/07/19 11:42:03;;;;;;;4.12;1.62;;;36.30;32.70;;;;;;10790141;33;20098;-70
2022/07/19 11:48:05;;;;;;;1.90;1.17;;;36.40;32.50;;;;;;10786511;33;20384;-71
2022/07/19 11:54:07;;;;;;;3.87;1.17;;;36.80;32.20;;;;;;10789730;33;20419;-69
2022/07/19 12:00:12;;;;;;;2.20;1.23;;;37.00;31.80;;;;;;10788055;33;20066;-71
2022/07/19 12:06:16;;;;;;;2.05;1.30;;;36.90;31.40;;;;;;10786735;33;20063;-70
2022/07/19 12:12:19;;;;;;;3.75;1.20;;;37.00;31.00;;;;;;10788086;33;20025;-71
2022/07/19 12:19:07;;;;;;;2.10;1.25;;;37.10;30.60;;;;;;10785012;33;20039;-70
2022/07/19 12:25:09;;;;;;;1.70;1.10;;;37.10;30.30;;;;;;10783659;33;20033;-71
2022/07/19 12:31:11;;;;;;;1.85;1.30;;;37.10;30.00;;;;;;10821108;27;20055;-71
2022/07/19 12:37:26;;;;;;;2.53;1.37;;;37.20;30.10;;;;;;10825070;33;20023;-70
2022/07/19 12:43:28;;;;;;;3.45;1.48;;;37.20;30.10;;;;;;10821248;32;20019;-70
2022/07/19 12:50:03;;;;;;;2.60;1.58;;;37.10;30.80;;;;;;10803816;33;20054;-71
2022/07/19 12:56:05;;;;;;;8.48;1.52;;;37.00;30.40;;;;;;10823906;32;20439;-71
2022/07/19 13:02:15;;;;;;;1.75;1.12;;;37.20;30.20;;;;;;10809924;32;20055;-71
2022/07/19 13:08:18;;;;;;;3.55;1.55;;;37.30;30.30;;;;;;10821955;32;20430;-70
2022/07/19 13:14:20;;;;;;;3.00;1.37;;;37.40;30.40;;;;;;10821425;33;20054;-71
2022/07/19 13:20:22;;;;;;;1.67;1.20;;;37.10;30.60;;;;;;10821830;33;20067;-70
2022/07/19 13:26:24;;;;;;;5.22;1.17;;;37.20;30.10;;;;;;10821164;32;20029;-70
2022/07/19 13:32:26;;;;;;;5.37;1.87;;;37.10;30.00;;;;;;10786927;33;20054;-69
2022/07/19 13:38:28;;;;;;;3.47;1.55;;;37.10;30.00;;;;;;10770907;33;20024;-70
2022/07/19 13:44:31;;;;;;;2.40;1.65;;;36.80;29.90;;;;;;10783822;33;20020;-71
2022/07/19 13:50:33;;;;;;;7.37;1.85;;;36.80;30.00;;;;;;10783917;33;20298;-70
2022/07/19 13:56:36;;;;;;;1.90;1.25;;;36.90;30.00;;;;;;10784476;33;20031;-71
2022/07/19 14:02:38;;;;;;;1.50;1.08;;;36.90;30.20;;;;;;10778140;33;20016;-70
2022/07/19 14:08:41;;;;;;;2.62;1.40;;;36.90;30.40;;;;;;10789659;33;20028;-71
2022/07/19 14:14:43;;;;;;;3.22;1.80;;;36.90;30.00;;;;;;10790842;33;20048;-70
2022/07/19 14:20:45;;;;;;;2.95;1.08;;;36.90;29.90;;;;;;10789691;33;20020;-69
2022/07/19 14:26:47;;;;;;;2.75;1.60;;;36.80;30.20;;;;;;10787958;33;20021;-71
2022/07/19 14:32:49;;;;;;;3.00;1.75;;;36.70;30.60;;;;;;10795013;32;20031;-71
2022/07/19 14:38:51;;;;;;;2.95;0.82;;;36.80;30.30;;;;;;10821431;33;20032;-71
2022/07/19 14:44:54;;;;;;;2.78;1.40;;;36.80;30.30;;;;;;10828739;33;20433;-71
2022/07/19 14:50:56;;;;;;;3.62;1.55;;;36.80;30.20;;;;;;10828574;33;20024;-71
2022/07/19 14:56:58;;;;;;;2.10;1.33;;;36.70;30.60;;;;;;10826950;33;20028;-71
2022/07/19 15:03:00;;;;;;;2.55;1.70;;;36.80;30.50;;;;;;10828085;33;20046;-70
2022/07/19 15:09:03;;;;;;;4.20;1.98;;;36.80;30.30;;;;;;10809913;32;20085;-70
2022/07/19 15:15:07;;;;;;;1.85;1.23;;;36.80;30.20;;;;;;10827410;33;20031;-71
2022/07/19 15:21:09;;;;;;;7.60;2.12;;;36.80;30.40;;;;;;10826373;32;20050;-71
2022/07/19 15:27:11;;;;;;;1.35;0.95;;;36.90;30.50;;;;;;10825300;32;20016;-68
2022/07/19 15:33:14;;;;;;;1.73;1.20;;;36.90;30.50;;;;;;10827134;33;20047;-71
2022/07/19 15:39:16;;;;;;;5.37;1.55;;;37.00;30.40;;;;;;10826787;33;20430;-71
2022/07/19 15:45:19;;;;;;;3.85;2.33;;;36.90;30.20;;;;;;10826685;33;20028;-71
2022/07/19 15:51:21;;;;;;;2.58;1.58;;;36.90;30.00;;;;;;10825580;32;20016;-71
2022/07/19 15:57:23;;;;;;;1.10;0.98;;;36.90;30.20;;;;;;10824468;33;20418;-71
2022/07/19 16:03:25;;;;;;;1.40;0.93;;;36.80;30.20;;;;;;10810855;33;20328;-70
2022/07/19 16:09:28;;;;;;;1.98;1.17;;;36.90;30.10;;;;;;10825520;33;20313;-71
2022/07/19 16:15:31;;;;;;;5.60;1.20;;;36.90;30.10;;;;;;10821663;32;20028;-71
2022/07/19 16:21:33;;;;;;;3.28;0.98;;;37.00;30.20;;;;;;10823140;32;20057;-71
2022/07/19 16:27:36;;;;;;;2.22;1.20;;;37.10;30.30;;;;;;10823064;32;20020;-70
2022/07/19 16:33:38;;;;;;;1.48;1.00;;;37.10;30.20;;;;;;10823447;33;20050;-71
2022/07/19 16:39:40;;;;;;;1.65;1.00;;;37.10;30.30;;;;;;10809164;33;20320;-71
2022/07/19 16:45:43;;;;;;;2.67;1.10;;;37.10;30.40;;;;;;10820988;33;20217;-70
2022/07/19 16:51:46;;;;;;;1.52;0.98;;;37.10;30.40;;;;;;10824949;33;20023;-70
2022/07/19 16:57:48;;;;;;;1.25;0.80;;;37.10;30.60;;;;;;10820783;32;20036;-71
2022/07/19 17:03:50;;;;;;;2.17;1.08;;;37.20;30.70;;;;;;10824372;33;20054;-71
2022/07/19 17:09:52;;;;;;;2.28;0.95;;;37.10;30.80;;;;;;10820639;33;20184;-71
2022/07/19 17:15:54;;;;;;;7.25;1.45;;;37.10;30.90;;;;;;10820974;33;20050;-70
2022/07/19 17:21:56;;;;;;;1.58;0.90;;;37.00;30.80;;;;;;10819862;33;20302;-71
2022/07/19 17:27:59;;;;;;;2.28;1.12;;;36.90;31.20;;;;;;10814550;32;20028;-71
2022/07/19 17:34:01;;;;;;;2.05;1.33;;;36.90;31.40;;;;;;10825681;32;20027;-71
2022/07/19 17:40:04;;;;;;;1.85;1.02;;;36.90;31.50;;;;;;10826108;33;20043;-71
2022/07/19 17:46:06;;;;;;;1.62;0.88;;;36.90;31.40;;;;;;10827225;33;20032;-71
2022/07/19 17:52:09;;;;;;;2.78;1.12;;;37.00;31.40;;;;;;10816216;33;20043;-71
2022/07/19 17:58:11;;;;;;;3.70;0.93;;;37.50;31.20;;;;;;10825515;33;20032;-71
2022/07/19 18:04:14;;;;;;;1.37;0.75;;;38.70;30.40;;;;;;10824089;33;20051;-71
2022/07/19 18:10:16;;;;;;;1.48;0.80;;;39.50;29.70;;;;;;10824846;33;20070;-71
2022/07/19 18:16:18;;;;;;;0.70;0.70;;;38.90;30.30;;;;;;10826549;33;20028;-71
2022/07/19 18:22:20;;;;;;;3.42;1.08;;;37.70;31.70;;;;;;10799080;33;20032;-71
2022/07/19 18:28:23;;;;;;;1.23;0.90;;;36.90;33.00;;;;;;10788665;33;20439;-71
2022/07/19 18:34:25;;;;;;;0.77;0.75;;;36.30;33.70;;;;;;10789991;33;20036;-71
2022/07/19 18:40:28;;;;;;;0.75;0.52;;;35.80;34.30;;;;;;10789012;32;20055;-71
2022/07/19 18:46:31;;;;;;;1.73;0.93;;;35.40;34.70;;;;;;10787856;32;20031;-71
2022/07/19 18:52:34;;;;;;;1.15;0.90;;;35.20;35.10;;;;;;10787892;33;20020;-71
2022/07/19 18:58:36;;;;;;;0.90;0.85;;;34.90;35.70;;;;;;10788778;33;20028;-71
2022/07/19 19:04:38;;;;;;;2.00;1.23;;;34.80;36.10;;;;;;10786302;33;20020;-71
2022/07/19 19:10:41;;;;;;;3.47;1.08;;;34.60;36.70;;;;;;10811075;33;20070;-71
2022/07/19 19:16:43;;;;;;;0.95;0.68;;;34.40;37.00;;;;;;10823613;33;20055;-71
2022/07/19 19:22:45;;;;;;;1.85;1.00;;;34.20;37.50;;;;;;10823190;33;20028;-71
2022/07/19 19:28:47;;;;;;;1.95;1.42;;;34.10;37.90;;;;;;10823723;33;20013;-71
2022/07/19 19:34:51;;;;;;;3.00;1.17;;;33.90;38.30;;;;;;10823729;33;20028;-71
2022/07/19 19:40:53;;;;;;;5.95;1.83;;;33.80;38.70;;;;;;10823420;33;20052;-71
2022/07/19 19:46:55;;;;;;;2.55;1.23;;;33.70;39.10;;;;;;10826887;33;20020;-71
2022/07/19 19:52:57;;;;;;;1.20;0.60;;;33.60;39.40;;;;;;10809437;33;20047;-71
2022/07/19 19:59:01;;;;;;;1.45;0.68;;;33.50;39.90;;;;;;10809509;33;20348;-71
2022/07/19 20:05:03;;;;;;;1.50;0.90;;;33.30;40.30;;;;;;10826035;33;20052;-71
2022/07/19 20:11:06;;;;;;;2.87;1.08;;;33.20;40.70;;;;;;10824148;33;20040;-71
2022/07/19 20:17:09;;;;;;;1.40;0.90;;;33.10;41.10;;;;;;10822579;33;20020;-71
2022/07/19 20:23:53;;;;;;;1.60;0.85;;;33.00;41.60;;;;;;10821719;33;20027;-71
2022/07/19 20:29:55;;;;;;;0.90;0.50;;;32.90;42.00;;;;;;10611454;32;10003778;-71
2022/07/19 20:35:57;;;;;;;3.45;0.60;;;32.80;42.50;;;;;;10977263;32;20053;-72
2022/07/19 20:41:59;;;;;;;1.12;0.80;;;32.70;42.80;;;;;;10980281;32;20045;-72
2022/07/19 20:48:02;;;;;;;6.97;1.08;;;32.60;43.10;;;;;;10979674;32;20023;-71
2022/07/19 20:54:04;;;;;;;7.97;0.85;;;32.60;43.40;;;;;;10975634;32;20049;-71
2022/07/19 21:00:09;;;;;;;1.05;0.62;;;32.50;43.80;;;;;;10979454;32;20039;-71
2022/07/19 21:06:11;;;;;;;6.25;0.80;;;32.40;44.00;;;;;;10974926;32;20031;-71
2022/07/19 21:12:21;;;;;;;1.85;0.70;;;32.40;44.40;;;;;;10979514;32;20054;-71
2022/07/19 21:18:25;;;;;;;0.80;0.60;;;32.30;44.70;;;;;;10978656;32;20355;-71
2022/07/19 21:24:27;;;;;;;1.02;0.50;;;32.20;45.00;;;;;;10979494;32;20042;-72
2022/07/19 21:30:29;;;;;;;9.10;1.12;;;32.10;45.30;;;;;;10979232;32;20327;-72
2022/07/19 21:36:55;;;;;;;1.55;0.80;;;32.00;45.60;;;;;;10978296;32;20018;-72
2022/07/19 21:42:59;;;;;;;1.05;0.82;;;32.00;46.00;;;;;;10979094;32;20023;-72
2022/07/19 21:49:02;;;;;;;1.62;1.08;;;31.90;46.60;;;;;;10979013;32;20061;-72
2022/07/19 21:55:05;;;;;;;1.50;0.98;;;31.80;46.90;;;;;;10978860;32;20062;-72
2022/07/19 22:01:08;;;;;;;1.33;0.85;;;31.60;47.30;;;;;;10978908;32;20018;-72
2022/07/19 22:07:15;;;;;;;4.47;1.10;;;31.60;47.80;;;;;;10978757;32;20035;-72
2022/07/19 22:13:17;;;;;;;0.73;0.73;;;31.40;48.10;;;;;;10978565;32;20027;-72
2022/07/19 22:19:20;;;;;;;3.55;1.10;;;31.30;48.50;;;;;;10982501;32;20057;-72
2022/07/19 22:25:22;;;;;;;2.12;0.93;;;31.20;48.80;;;;;;10985228;32;20026;-72
2022/07/19 22:37:54;;;;;;;2.55;1.08;;;31.10;49.30;;;;;;10984730;32;20058;-71
2022/07/19 22:43:58;;;;;;;2.03;1.33;;;31.00;49.50;;;;;;10984588;32;20053;-72
2022/07/19 22:50:04;;;;;;;8.05;1.48;;;31.00;49.60;;;;;;10984272;32;20049;-72
2022/07/19 22:56:09;;;;;;;2.87;1.25;;;31.00;49.70;;;;;;10983947;32;20057;-71
2022/07/19 23:02:11;;;;;;;4.07;1.05;;;30.90;50.10;;;;;;10983925;32;20391;-72
2022/07/19 23:08:13;;;;;;;1.30;0.95;;;30.80;50.40;;;;;;10983680;32;20038;-71
2022/07/19 23:14:16;;;;;;;1.83;1.10;;;30.70;50.70;;;;;;10983587;32;20018;-72
2022/07/19 23:20:18;;;;;;;3.33;0.98;;;30.60;51.00;;;;;;10983162;32;20273;-72
2022/07/19 23:26:21;;;;;;;5.05;1.17;;;30.40;51.20;;;;;;10983034;32;20045;-71
2022/07/19 23:32:23;;;;;;;1.40;0.95;;;30.30;51.50;;;;;;10982170;32;20327;-72
2022/07/19 23:38:25;;;;;;;3.70;0.90;;;30.20;51.70;;;;;;10982417;32;20030;-72
2022/07/19 23:44:27;;;;;;;1.23;0.70;;;30.20;51.90;;;;;;10982378;32;20432;-71
2022/07/19 23:50:29;;;;;;;1.50;1.08;;;30.10;52.10;;;;;;10982014;32;20056;-71
2022/07/19 23:56:31;;;;;;;0.80;0.75;;;30.20;51.90;;;;;;10981774;32;20038;-72
